sensor_id;sensor_type;location;lat;lon;timestamp;temperature;humidity
14409;DHT22;7289;50.706;4.992;2023-06-14T00:00:06;16.40;94.70
14409;DHT22;7289;50.706;4.992;2023-06-14T00:02:35;16.40;94.80
14409;DHT22;7289;50.706;4.992;2023-06-14T00:05:04;16.40;95.00
14409;DHT22;7289;50.706;4.992;2023-06-14T00:07:38;16.40;95.20
14409;DHT22;7289;50.706;4.992;2023-06-14T00:10:10;16.30;95.20
14409;DHT22;7289;50.706;4.992;2023-06-14T00:12:40;16.30;95.50
14409;DHT22;7289;50.706;4.992;2023-06-14T00:15:08;16.30;95.40
14409;DHT22;7289;50.706;4.992;2023-06-14T00:17:37;16.20;95.50
14409;DHT22;7289;50.706;4.992;2023-06-14T00:20:07;16.20;95.50
14409;DHT22;7289;50.706;4.992;2023-06-14T00:22:38;16.10;95.60
14409;DHT22;7289;50.706;4.992;2023-06-14T00:25:07;16.00;95.60
14409;DHT22;7289;50.706;4.992;2023-06-14T00:27:54;16.10;95.80
14409;DHT22;7289;50.706;4.992;2023-06-14T00:30:23;16.00;95.90
14409;DHT22;7289;50.706;4.992;2023-06-14T00:32:52;16.00;96.00
14409;DHT22;7289;50.706;4.992;2023-06-14T00:35:20;15.90;96.20
14409;DHT22;7289;50.706;4.992;2023-06-14T00:37:50;15.90;96.30
14409;DHT22;7289;50.706;4.992;2023-06-14T00:40:18;15.80;96.60
14409;DHT22;7289;50.706;4.992;2023-06-14T00:42:47;15.80;96.60
14409;DHT22;7289;50.706;4.992;2023-06-14T00:45:16;15.70;96.80
14409;DHT22;7289;50.706;4.992;2023-06-14T00:47:46;15.70;97.10
14409;DHT22;7289;50.706;4.992;2023-06-14T00:50:16;15.70;97.20
14409;DHT22;7289;50.706;4.992;2023-06-14T00:52:44;15.60;97.20
14409;DHT22;7289;50.706;4.992;2023-06-14T00:55:14;15.60;97.30
14409;DHT22;7289;50.706;4.992;2023-06-14T00:57:42;15.50;97.40
14409;DHT22;7289;50.706;4.992;2023-06-14T01:00:13;15.50;97.60
14409;DHT22;7289;50.706;4.992;2023-06-14T01:02:42;15.50;97.60
14409;DHT22;7289;50.706;4.992;2023-06-14T01:05:11;15.40;97.60
14409;DHT22;7289;50.706;4.992;2023-06-14T01:07:51;15.40;97.70
14409;DHT22;7289;50.706;4.992;2023-06-14T01:10:32;15.40;97.80
14409;DHT22;7289;50.706;4.992;2023-06-14T01:13:09;15.40;97.90
14409;DHT22;7289;50.706;4.992;2023-06-14T01:15:39;15.30;97.80
14409;DHT22;7289;50.706;4.992;2023-06-14T01:18:09;15.20;98.00
14409;DHT22;7289;50.706;4.992;2023-06-14T01:20:45;15.20;98.20
14409;DHT22;7289;50.706;4.992;2023-06-14T01:23:18;15.10;98.20
14409;DHT22;7289;50.706;4.992;2023-06-14T01:25:47;15.10;98.40
14409;DHT22;7289;50.706;4.992;2023-06-14T01:28:21;15.10;98.50
14409;DHT22;7289;50.706;4.992;2023-06-14T01:30:51;15.10;98.60
14409;DHT22;7289;50.706;4.992;2023-06-14T01:33:21;14.90;98.60
14409;DHT22;7289;50.706;4.992;2023-06-14T01:35:51;14.90;98.60
14409;DHT22;7289;50.706;4.992;2023-06-14T01:38:23;14.90;98.80
14409;DHT22;7289;50.706;4.992;2023-06-14T01:40:54;14.90;98.80
14409;DHT22;7289;50.706;4.992;2023-06-14T01:43:25;14.80;98.90
14409;DHT22;7289;50.706;4.992;2023-06-14T01:45:55;14.80;99.00
14409;DHT22;7289;50.706;4.992;2023-06-14T01:48:27;14.80;99.10
14409;DHT22;7289;50.706;4.992;2023-06-14T01:50:55;14.70;99.10
14409;DHT22;7289;50.706;4.992;2023-06-14T01:53:25;14.70;99.20
14409;DHT22;7289;50.706;4.992;2023-06-14T01:55:53;14.60;99.20
14409;DHT22;7289;50.706;4.992;2023-06-14T01:58:22;14.60;99.20
14409;DHT22;7289;50.706;4.992;2023-06-14T02:00:51;14.60;99.50
14409;DHT22;7289;50.706;4.992;2023-06-14T02:03:22;14.50;99.50
14409;DHT22;7289;50.706;4.992;2023-06-14T02:05:52;14.50;99.50
14409;DHT22;7289;50.706;4.992;2023-06-14T02:08:21;14.50;99.40
14409;DHT22;7289;50.706;4.992;2023-06-14T02:10:51;14.40;99.40
14409;DHT22;7289;50.706;4.992;2023-06-14T02:13:21;14.40;99.80
14409;DHT22;7289;50.706;4.992;2023-06-14T02:15:50;14.30;99.50
14409;DHT22;7289;50.706;4.992;2023-06-14T02:18:21;14.30;99.60
14409;DHT22;7289;50.706;4.992;2023-06-14T02:20:50;14.30;99.60
14409;DHT22;7289;50.706;4.992;2023-06-14T02:23:18;14.20;99.60
14409;DHT22;7289;50.706;4.992;2023-06-14T02:25:46;14.20;99.70
14409;DHT22;7289;50.706;4.992;2023-06-14T02:28:16;14.20;99.70
14409;DHT22;7289;50.706;4.992;2023-06-14T02:30:44;14.10;99.70
14409;DHT22;7289;50.706;4.992;2023-06-14T02:33:12;14.10;99.90
14409;DHT22;7289;50.706;4.992;2023-06-14T02:35:41;14.00;99.90
14409;DHT22;7289;50.706;4.992;2023-06-14T02:38:09;14.00;99.90
14409;DHT22;7289;50.706;4.992;2023-06-14T02:40:38;14.00;99.90
14409;DHT22;7289;50.706;4.992;2023-06-14T02:43:09;14.00;99.90
14409;DHT22;7289;50.706;4.992;2023-06-14T02:45:40;13.90;99.90
14409;DHT22;7289;50.706;4.992;2023-06-14T02:48:08;13.90;99.90
14409;DHT22;7289;50.706;4.992;2023-06-14T02:50:37;13.80;99.90
14409;DHT22;7289;50.706;4.992;2023-06-14T02:53:05;13.80;99.90
14409;DHT22;7289;50.706;4.992;2023-06-14T02:55:34;13.80;99.90
14409;DHT22;7289;50.706;4.992;2023-06-14T02:58:08;13.80;99.90
14409;DHT22;7289;50.706;4.992;2023-06-14T03:00:37;13.70;99.90
14409;DHT22;7289;50.706;4.992;2023-06-14T03:03:07;13.70;99.90
14409;DHT22;7289;50.706;4.992;2023-06-14T03:05:44;13.70;99.90
14409;DHT22;7289;50.706;4.992;2023-06-14T03:08:16;13.70;99.90
14409;DHT22;7289;50.706;4.992;2023-06-14T03:10:49;13.60;99.90
14409;DHT22;7289;50.706;4.992;2023-06-14T03:13:18;13.60;99.90
14409;DHT22;7289;50.706;4.992;2023-06-14T03:15:49;13.60;99.90
14409;DHT22;7289;50.706;4.992;2023-06-14T03:18:20;13.60;99.90
14409;DHT22;7289;50.706;4.992;2023-06-14T03:20:55;13.60;99.90
14409;DHT22;7289;50.706;4.992;2023-06-14T03:23:25;13.60;99.90
14409;DHT22;7289;50.706;4.992;2023-06-14T03:25:54;13.50;99.90
14409;DHT22;7289;50.706;4.992;2023-06-14T03:28:23;13.50;99.90
14409;DHT22;7289;50.706;4.992;2023-06-14T03:30:53;13.50;99.90
14409;DHT22;7289;50.706;4.992;2023-06-14T03:33:24;13.50;99.90
14409;DHT22;7289;50.706;4.992;2023-06-14T03:35:54;13.50;99.90
14409;DHT22;7289;50.706;4.992;2023-06-14T03:38:23;13.50;99.90
14409;DHT22;7289;50.706;4.992;2023-06-14T03:40:52;13.50;99.90
14409;DHT22;7289;50.706;4.992;2023-06-14T03:43:20;13.60;99.90
14409;DHT22;7289;50.706;4.992;2023-06-14T03:45:49;13.60;99.90
14409;DHT22;7289;50.706;4.992;2023-06-14T03:48:18;13.50;99.90
14409;DHT22;7289;50.706;4.992;2023-06-14T03:50:48;13.50;99.90
14409;DHT22;7289;50.706;4.992;2023-06-14T03:53:16;13.50;99.90
14409;DHT22;7289;50.706;4.992;2023-06-14T03:55:49;13.50;99.90
14409;DHT22;7289;50.706;4.992;2023-06-14T03:58:26;13.50;99.90
14409;DHT22;7289;50.706;4.992;2023-06-14T04:00:55;13.50;99.90
14409;DHT22;7289;50.706;4.992;2023-06-14T04:03:24;13.60;99.90
14409;DHT22;7289;50.706;4.992;2023-06-14T04:05:59;13.60;99.90
14409;DHT22;7289;50.706;4.992;2023-06-14T04:08:27;13.60;99.90
14409;DHT22;7289;50.706;4.992;2023-06-14T04:10:57;13.60;99.90
14409;DHT22;7289;50.706;4.992;2023-06-14T04:13:26;13.60;99.90
14409;DHT22;7289;50.706;4.992;2023-06-14T04:15:54;13.60;99.90
14409;DHT22;7289;50.706;4.992;2023-06-14T04:18:29;13.60;99.90
14409;DHT22;7289;50.706;4.992;2023-06-14T04:20:59;13.60;99.90
14409;DHT22;7289;50.706;4.992;2023-06-14T04:23:28;13.70;99.90
14409;DHT22;7289;50.706;4.992;2023-06-14T04:25:57;13.70;99.90
14409;DHT22;7289;50.706;4.992;2023-06-14T04:28:30;13.80;99.90
14409;DHT22;7289;50.706;4.992;2023-06-14T04:31:01;13.80;99.90
14409;DHT22;7289;50.706;4.992;2023-06-14T04:33:32;13.90;99.90
14409;DHT22;7289;50.706;4.992;2023-06-14T04:36:02;13.90;99.90
14409;DHT22;7289;50.706;4.992;2023-06-14T04:38:31;13.90;99.90
14409;DHT22;7289;50.706;4.992;2023-06-14T04:41:02;14.00;99.90
14409;DHT22;7289;50.706;4.992;2023-06-14T04:43:31;14.00;99.90
14409;DHT22;7289;50.706;4.992;2023-06-14T04:46:06;14.10;99.90
14409;DHT22;7289;50.706;4.992;2023-06-14T04:48:39;14.20;99.90
14409;DHT22;7289;50.706;4.992;2023-06-14T04:51:11;14.20;99.90
14409;DHT22;7289;50.706;4.992;2023-06-14T04:53:42;14.30;99.90
14409;DHT22;7289;50.706;4.992;2023-06-14T04:56:12;14.40;99.90
14409;DHT22;7289;50.706;4.992;2023-06-14T04:58:40;14.50;99.90
14409;DHT22;7289;50.706;4.992;2023-06-14T05:01:09;14.60;99.90
14409;DHT22;7289;50.706;4.992;2023-06-14T05:03:37;14.70;99.90
14409;DHT22;7289;50.706;4.992;2023-06-14T05:06:06;14.70;99.90
14409;DHT22;7289;50.706;4.992;2023-06-14T05:08:36;14.90;99.90
14409;DHT22;7289;50.706;4.992;2023-06-14T05:11:04;15.00;99.90
14409;DHT22;7289;50.706;4.992;2023-06-14T05:13:33;15.10;99.90
14409;DHT22;7289;50.706;4.992;2023-06-14T05:16:01;15.20;99.90
14409;DHT22;7289;50.706;4.992;2023-06-14T05:18:30;15.40;99.90
14409;DHT22;7289;50.706;4.992;2023-06-14T05:21:01;15.50;99.90
14409;DHT22;7289;50.706;4.992;2023-06-14T05:23:30;15.60;99.90
14409;DHT22;7289;50.706;4.992;2023-06-14T05:26:00;15.70;99.90
14409;DHT22;7289;50.706;4.992;2023-06-14T05:28:29;15.90;99.90
14409;DHT22;7289;50.706;4.992;2023-06-14T05:30:58;16.00;99.90
14409;DHT22;7289;50.706;4.992;2023-06-14T05:33:27;16.20;99.60
14409;DHT22;7289;50.706;4.992;2023-06-14T05:35:55;16.30;99.00
14409;DHT22;7289;50.706;4.992;2023-06-14T05:38:23;16.50;98.60
14409;DHT22;7289;50.706;4.992;2023-06-14T05:40:52;16.60;98.00
14409;DHT22;7289;50.706;4.992;2023-06-14T05:43:22;16.80;98.00
14409;DHT22;7289;50.706;4.992;2023-06-14T05:45:50;16.90;97.20
14409;DHT22;7289;50.706;4.992;2023-06-14T05:48:19;17.10;96.30
14409;DHT22;7289;50.706;4.992;2023-06-14T05:50:47;17.30;96.50
14409;DHT22;7289;50.706;4.992;2023-06-14T05:53:15;17.40;96.30
14409;DHT22;7289;50.706;4.992;2023-06-14T05:55:44;17.60;96.50
14409;DHT22;7289;50.706;4.992;2023-06-14T05:58:12;17.70;96.50
14409;DHT22;7289;50.706;4.992;2023-06-14T06:00:42;17.80;95.30
14409;DHT22;7289;50.706;4.992;2023-06-14T06:03:11;18.00;94.90
14409;DHT22;7289;50.706;4.992;2023-06-14T06:05:40;18.10;95.30
14409;DHT22;7289;50.706;4.992;2023-06-14T06:08:08;18.10;94.50
14409;DHT22;7289;50.706;4.992;2023-06-14T06:10:37;18.20;95.00
14409;DHT22;7289;50.706;4.992;2023-06-14T06:13:05;18.40;95.00
14409;DHT22;7289;50.706;4.992;2023-06-14T06:15:36;18.50;94.60
14409;DHT22;7289;50.706;4.992;2023-06-14T06:18:05;18.70;95.40
14409;DHT22;7289;50.706;4.992;2023-06-14T06:20:34;18.90;94.20
14409;DHT22;7289;50.706;4.992;2023-06-14T06:23:03;18.90;93.30
14409;DHT22;7289;50.706;4.992;2023-06-14T06:25:31;19.10;93.30
14409;DHT22;7289;50.706;4.992;2023-06-14T06:28:00;19.30;93.40
14409;DHT22;7289;50.706;4.992;2023-06-14T06:30:28;19.30;92.20
14409;DHT22;7289;50.706;4.992;2023-06-14T06:32:57;19.40;92.40
14409;DHT22;7289;50.706;4.992;2023-06-14T06:35:27;19.60;92.50
14409;DHT22;7289;50.706;4.992;2023-06-14T06:37:57;19.80;94.00
14409;DHT22;7289;50.706;4.992;2023-06-14T06:40:25;20.00;91.30
14409;DHT22;7289;50.706;4.992;2023-06-14T06:42:54;20.10;92.10
14409;DHT22;7289;50.706;4.992;2023-06-14T06:45:26;20.20;91.40
14409;DHT22;7289;50.706;4.992;2023-06-14T06:47:55;20.20;91.50
14409;DHT22;7289;50.706;4.992;2023-06-14T06:50:23;20.30;91.50
14409;DHT22;7289;50.706;4.992;2023-06-14T06:52:53;20.40;90.80
14409;DHT22;7289;50.706;4.992;2023-06-14T06:55:22;20.50;91.00
14409;DHT22;7289;50.706;4.992;2023-06-14T06:57:50;20.70;90.60
14409;DHT22;7289;50.706;4.992;2023-06-14T07:00:20;20.90;90.60
14409;DHT22;7289;50.706;4.992;2023-06-14T07:02:48;20.90;90.20
14409;DHT22;7289;50.706;4.992;2023-06-14T07:05:17;20.90;89.80
14409;DHT22;7289;50.706;4.992;2023-06-14T07:07:46;21.10;90.20
14409;DHT22;7289;50.706;4.992;2023-06-14T07:10:15;21.30;89.30
14409;DHT22;7289;50.706;4.992;2023-06-14T07:12:44;21.30;88.60
14409;DHT22;7289;50.706;4.992;2023-06-14T07:15:12;21.40;88.60
14409;DHT22;7289;50.706;4.992;2023-06-14T07:17:41;21.50;88.20
14409;DHT22;7289;50.706;4.992;2023-06-14T07:20:11;21.60;87.30
14409;DHT22;7289;50.706;4.992;2023-06-14T07:22:41;21.80;87.90
14409;DHT22;7289;50.706;4.992;2023-06-14T07:25:10;21.90;90.60
14409;DHT22;7289;50.706;4.992;2023-06-14T07:27:44;22.00;87.10
14409;DHT22;7289;50.706;4.992;2023-06-14T07:30:13;22.00;85.30
14409;DHT22;7289;50.706;4.992;2023-06-14T07:32:41;22.10;87.80
14409;DHT22;7289;50.706;4.992;2023-06-14T07:35:10;22.20;87.00
14409;DHT22;7289;50.706;4.992;2023-06-14T07:37:38;22.30;86.60
14409;DHT22;7289;50.706;4.992;2023-06-14T07:40:08;22.30;85.20
14409;DHT22;7289;50.706;4.992;2023-06-14T07:42:37;22.30;86.00
14409;DHT22;7289;50.706;4.992;2023-06-14T07:45:07;22.40;86.60
14409;DHT22;7289;50.706;4.992;2023-06-14T07:47:36;22.60;87.00
14409;DHT22;7289;50.706;4.992;2023-06-14T07:50:05;22.70;84.50
14409;DHT22;7289;50.706;4.992;2023-06-14T07:52:36;22.70;84.50
14409;DHT22;7289;50.706;4.992;2023-06-14T07:55:05;22.80;85.40
14409;DHT22;7289;50.706;4.992;2023-06-14T07:57:33;23.10;85.60
14409;DHT22;7289;50.706;4.992;2023-06-14T08:00:03;23.10;83.60
14409;DHT22;7289;50.706;4.992;2023-06-14T08:02:41;23.10;84.30
14409;DHT22;7289;50.706;4.992;2023-06-14T08:05:10;23.10;82.80
14409;DHT22;7289;50.706;4.992;2023-06-14T08:07:39;23.30;85.00
14409;DHT22;7289;50.706;4.992;2023-06-14T08:10:08;23.40;83.40
14409;DHT22;7289;50.706;4.992;2023-06-14T08:12:37;23.50;83.20
14409;DHT22;7289;50.706;4.992;2023-06-14T08:15:06;23.60;83.30
14409;DHT22;7289;50.706;4.992;2023-06-14T08:17:44;23.80;82.30
14409;DHT22;7289;50.706;4.992;2023-06-14T08:20:13;23.80;83.50
14409;DHT22;7289;50.706;4.992;2023-06-14T08:22:44;23.70;81.40
14409;DHT22;7289;50.706;4.992;2023-06-14T08:25:15;23.70;82.60
14409;DHT22;7289;50.706;4.992;2023-06-14T08:27:44;23.60;80.80
14409;DHT22;7289;50.706;4.992;2023-06-14T08:30:13;23.50;80.90
14409;DHT22;7289;50.706;4.992;2023-06-14T08:32:44;23.50;81.40
14409;DHT22;7289;50.706;4.992;2023-06-14T08:35:19;23.70;81.00
14409;DHT22;7289;50.706;4.992;2023-06-14T08:37:48;23.80;79.80
14409;DHT22;7289;50.706;4.992;2023-06-14T08:40:21;23.70;79.60
14409;DHT22;7289;50.706;4.992;2023-06-14T08:42:54;23.70;81.50
14409;DHT22;7289;50.706;4.992;2023-06-14T08:45:23;23.90;81.30
14409;DHT22;7289;50.706;4.992;2023-06-14T08:47:56;23.90;80.00
14409;DHT22;7289;50.706;4.992;2023-06-14T08:50:28;24.10;81.60
14409;DHT22;7289;50.706;4.992;2023-06-14T08:53:01;24.10;78.30
14409;DHT22;7289;50.706;4.992;2023-06-14T08:55:31;24.20;78.60
14409;DHT22;7289;50.706;4.992;2023-06-14T08:58:04;24.40;79.60
14409;DHT22;7289;50.706;4.992;2023-06-14T09:00:33;24.20;76.60
14409;DHT22;7289;50.706;4.992;2023-06-14T09:03:03;24.20;77.30
14409;DHT22;7289;50.706;4.992;2023-06-14T09:05:33;24.30;78.20
14409;DHT22;7289;50.706;4.992;2023-06-14T09:08:01;24.20;76.40
14409;DHT22;7289;50.706;4.992;2023-06-14T09:10:33;24.10;74.00
14409;DHT22;7289;50.706;4.992;2023-06-14T09:13:05;24.10;72.80
14409;DHT22;7289;50.706;4.992;2023-06-14T09:15:34;24.10;75.00
14409;DHT22;7289;50.706;4.992;2023-06-14T09:18:04;24.20;75.30
14409;DHT22;7289;50.706;4.992;2023-06-14T09:20:34;24.20;76.40
14409;DHT22;7289;50.706;4.992;2023-06-14T09:23:02;24.20;74.00
14409;DHT22;7289;50.706;4.992;2023-06-14T09:25:33;24.20;73.10
14409;DHT22;7289;50.706;4.992;2023-06-14T09:28:09;24.30;76.00
14409;DHT22;7289;50.706;4.992;2023-06-14T09:30:38;24.30;73.50
14409;DHT22;7289;50.706;4.992;2023-06-14T09:33:08;24.30;73.70
14409;DHT22;7289;50.706;4.992;2023-06-14T09:35:36;24.40;73.30
14409;DHT22;7289;50.706;4.992;2023-06-14T09:38:05;24.50;74.00
14409;DHT22;7289;50.706;4.992;2023-06-14T09:40:35;24.50;73.90
14409;DHT22;7289;50.706;4.992;2023-06-14T09:43:07;24.70;74.50
14409;DHT22;7289;50.706;4.992;2023-06-14T09:45:38;24.70;75.00
14409;DHT22;7289;50.706;4.992;2023-06-14T09:48:09;24.80;74.80
14409;DHT22;7289;50.706;4.992;2023-06-14T09:50:39;24.80;74.20
14409;DHT22;7289;50.706;4.992;2023-06-14T09:53:10;24.90;73.40
14409;DHT22;7289;50.706;4.992;2023-06-14T09:55:41;24.90;72.70
14409;DHT22;7289;50.706;4.992;2023-06-14T09:58:10;25.00;70.50
14409;DHT22;7289;50.706;4.992;2023-06-14T10:00:39;25.00;69.90
14409;DHT22;7289;50.706;4.992;2023-06-14T10:03:14;25.10;71.50
14409;DHT22;7289;50.706;4.992;2023-06-14T10:05:45;25.10;71.40
14409;DHT22;7289;50.706;4.992;2023-06-14T10:08:16;25.20;70.30
14409;DHT22;7289;50.706;4.992;2023-06-14T10:10:46;25.20;68.40
14409;DHT22;7289;50.706;4.992;2023-06-14T10:13:15;25.20;69.10
14409;DHT22;7289;50.706;4.992;2023-06-14T10:15:51;25.10;69.10
14409;DHT22;7289;50.706;4.992;2023-06-14T10:18:31;25.10;68.10
14409;DHT22;7289;50.706;4.992;2023-06-14T10:22:18;25.30;71.10
14409;DHT22;7289;50.706;4.992;2023-06-14T10:24:50;25.20;69.10
14409;DHT22;7289;50.706;4.992;2023-06-14T10:27:18;25.10;71.50
14409;DHT22;7289;50.706;4.992;2023-06-14T10:30:07;25.10;70.60
14409;DHT22;7289;50.706;4.992;2023-06-14T10:33:05;25.10;68.10
14409;DHT22;7289;50.706;4.992;2023-06-14T10:35:36;24.90;66.00
14409;DHT22;7289;50.706;4.992;2023-06-14T10:38:08;25.00;71.10
14409;DHT22;7289;50.706;4.992;2023-06-14T10:40:37;25.10;69.50
14409;DHT22;7289;50.706;4.992;2023-06-14T10:43:22;25.10;69.00
14409;DHT22;7289;50.706;4.992;2023-06-14T10:46:15;25.10;66.60
14409;DHT22;7289;50.706;4.992;2023-06-14T10:48:44;25.30;68.40
14409;DHT22;7289;50.706;4.992;2023-06-14T10:51:18;25.30;67.10
14409;DHT22;7289;50.706;4.992;2023-06-14T10:53:48;25.40;64.70
14409;DHT22;7289;50.706;4.992;2023-06-14T10:56:24;25.20;64.90
14409;DHT22;7289;50.706;4.992;2023-06-14T10:58:56;25.30;66.10
14409;DHT22;7289;50.706;4.992;2023-06-14T11:01:36;25.30;69.20
14409;DHT22;7289;50.706;4.992;2023-06-14T11:04:09;25.40;64.90
14409;DHT22;7289;50.706;4.992;2023-06-14T11:06:50;25.30;66.80
14409;DHT22;7289;50.706;4.992;2023-06-14T11:09:57;25.50;67.80
14409;DHT22;7289;50.706;4.992;2023-06-14T11:12:32;25.60;68.60
14409;DHT22;7289;50.706;4.992;2023-06-14T11:15:03;25.70;66.70
14409;DHT22;7289;50.706;4.992;2023-06-14T11:17:33;25.50;66.30
14409;DHT22;7289;50.706;4.992;2023-06-14T11:20:08;25.50;63.70
14409;DHT22;7289;50.706;4.992;2023-06-14T11:22:41;25.50;66.50
14409;DHT22;7289;50.706;4.992;2023-06-14T11:25:11;25.40;65.00
14409;DHT22;7289;50.706;4.992;2023-06-14T11:27:42;25.50;66.60
14409;DHT22;7289;50.706;4.992;2023-06-14T11:30:11;25.30;65.70
14409;DHT22;7289;50.706;4.992;2023-06-14T11:32:40;25.30;65.50
14409;DHT22;7289;50.706;4.992;2023-06-14T11:35:09;25.40;67.40
14409;DHT22;7289;50.706;4.992;2023-06-14T11:37:38;25.70;67.80
14409;DHT22;7289;50.706;4.992;2023-06-14T11:40:09;25.90;65.90
14409;DHT22;7289;50.706;4.992;2023-06-14T11:42:41;25.70;66.00
14409;DHT22;7289;50.706;4.992;2023-06-14T11:45:10;25.80;65.90
14409;DHT22;7289;50.706;4.992;2023-06-14T11:47:39;25.70;63.70
14409;DHT22;7289;50.706;4.992;2023-06-14T11:50:10;25.80;63.80
14409;DHT22;7289;50.706;4.992;2023-06-14T11:52:38;25.70;64.90
14409;DHT22;7289;50.706;4.992;2023-06-14T11:55:09;25.60;61.70
14409;DHT22;7289;50.706;4.992;2023-06-14T11:57:37;25.80;65.70
14409;DHT22;7289;50.706;4.992;2023-06-14T12:00:07;25.90;65.50
14409;DHT22;7289;50.706;4.992;2023-06-14T12:02:39;26.00;62.30
14409;DHT22;7289;50.706;4.992;2023-06-14T12:05:08;25.90;65.90
14409;DHT22;7289;50.706;4.992;2023-06-14T12:07:37;26.00;65.70
14409;DHT22;7289;50.706;4.992;2023-06-14T12:10:09;26.00;65.20
14409;DHT22;7289;50.706;4.992;2023-06-14T12:12:38;26.00;63.20
14409;DHT22;7289;50.706;4.992;2023-06-14T12:15:08;26.10;64.30
14409;DHT22;7289;50.706;4.992;2023-06-14T12:17:39;26.20;65.40
14409;DHT22;7289;50.706;4.992;2023-06-14T12:20:11;26.20;64.20
14409;DHT22;7289;50.706;4.992;2023-06-14T12:22:50;26.20;61.90
14409;DHT22;7289;50.706;4.992;2023-06-14T12:25:28;26.30;64.50
14409;DHT22;7289;50.706;4.992;2023-06-14T12:27:59;26.30;64.20
14409;DHT22;7289;50.706;4.992;2023-06-14T12:30:28;26.30;64.80
14409;DHT22;7289;50.706;4.992;2023-06-14T12:32:56;26.50;62.90
14409;DHT22;7289;50.706;4.992;2023-06-14T12:35:25;26.40;65.10
14409;DHT22;7289;50.706;4.992;2023-06-14T12:37:53;26.60;64.40
14409;DHT22;7289;50.706;4.992;2023-06-14T12:40:22;26.70;64.60
14409;DHT22;7289;50.706;4.992;2023-06-14T12:42:52;26.90;64.40
14409;DHT22;7289;50.706;4.992;2023-06-14T12:45:20;26.90;63.10
14409;DHT22;7289;50.706;4.992;2023-06-14T12:47:50;26.90;62.20
14409;DHT22;7289;50.706;4.992;2023-06-14T12:50:19;26.90;61.50
14409;DHT22;7289;50.706;4.992;2023-06-14T12:52:52;26.70;60.50
14409;DHT22;7289;50.706;4.992;2023-06-14T12:55:20;26.80;63.10
14409;DHT22;7289;50.706;4.992;2023-06-14T12:57:48;26.90;61.60
14409;DHT22;7289;50.706;4.992;2023-06-14T13:00:20;26.70;59.30
14409;DHT22;7289;50.706;4.992;2023-06-14T13:02:49;26.70;61.30
14409;DHT22;7289;50.706;4.992;2023-06-14T13:05:18;26.70;59.80
14409;DHT22;7289;50.706;4.992;2023-06-14T13:07:46;26.90;61.60
14409;DHT22;7289;50.706;4.992;2023-06-14T13:10:14;27.00;60.00
14409;DHT22;7289;50.706;4.992;2023-06-14T13:12:43;27.10;62.00
14409;DHT22;7289;50.706;4.992;2023-06-14T13:15:11;27.20;60.50
14409;DHT22;7289;50.706;4.992;2023-06-14T13:17:41;27.30;58.30
14409;DHT22;7289;50.706;4.992;2023-06-14T13:20:15;27.20;57.70
14409;DHT22;7289;50.706;4.992;2023-06-14T13:22:47;27.10;58.80
14409;DHT22;7289;50.706;4.992;2023-06-14T13:25:18;27.20;58.30
14409;DHT22;7289;50.706;4.992;2023-06-14T13:27:47;27.20;57.80
14409;DHT22;7289;50.706;4.992;2023-06-14T13:30:15;27.10;56.80
14409;DHT22;7289;50.706;4.992;2023-06-14T13:32:45;27.20;58.40
14409;DHT22;7289;50.706;4.992;2023-06-14T13:35:17;27.30;57.60
14409;DHT22;7289;50.706;4.992;2023-06-14T13:37:45;27.30;58.70
14409;DHT22;7289;50.706;4.992;2023-06-14T13:40:13;27.30;56.80
14409;DHT22;7289;50.706;4.992;2023-06-14T13:42:42;27.30;59.10
14409;DHT22;7289;50.706;4.992;2023-06-14T13:45:12;27.20;57.80
14409;DHT22;7289;50.706;4.992;2023-06-14T13:47:40;27.20;58.10
14409;DHT22;7289;50.706;4.992;2023-06-14T13:50:10;27.10;56.30
14409;DHT22;7289;50.706;4.992;2023-06-14T13:52:40;27.10;56.60
14409;DHT22;7289;50.706;4.992;2023-06-14T13:55:09;26.90;56.70
14409;DHT22;7289;50.706;4.992;2023-06-14T13:57:39;27.00;59.10
14409;DHT22;7289;50.706;4.992;2023-06-14T14:00:08;27.20;56.70
14409;DHT22;7289;50.706;4.992;2023-06-14T14:02:40;26.80;57.90
14409;DHT22;7289;50.706;4.992;2023-06-14T14:05:11;27.00;60.00
14409;DHT22;7289;50.706;4.992;2023-06-14T14:07:39;27.00;57.70
14409;DHT22;7289;50.706;4.992;2023-06-14T14:10:09;27.30;57.60
14409;DHT22;7289;50.706;4.992;2023-06-14T14:12:40;27.40;58.80
14409;DHT22;7289;50.706;4.992;2023-06-14T14:15:09;27.30;57.50
14409;DHT22;7289;50.706;4.992;2023-06-14T14:17:40;27.30;59.20
14409;DHT22;7289;50.706;4.992;2023-06-14T14:20:11;27.40;57.90
14409;DHT22;7289;50.706;4.992;2023-06-14T14:22:43;27.60;59.30
14409;DHT22;7289;50.706;4.992;2023-06-14T14:25:11;27.60;57.00
14409;DHT22;7289;50.706;4.992;2023-06-14T14:27:39;27.80;59.90
14409;DHT22;7289;50.706;4.992;2023-06-14T14:30:09;27.80;57.80
14409;DHT22;7289;50.706;4.992;2023-06-14T14:32:37;27.80;57.90
14409;DHT22;7289;50.706;4.992;2023-06-14T14:35:06;27.70;56.30
14409;DHT22;7289;50.706;4.992;2023-06-14T14:37:36;27.50;57.40
14409;DHT22;7289;50.706;4.992;2023-06-14T14:40:06;27.50;58.60
14409;DHT22;7289;50.706;4.992;2023-06-14T14:42:36;27.60;59.60
14409;DHT22;7289;50.706;4.992;2023-06-14T14:45:06;27.50;59.00
14409;DHT22;7289;50.706;4.992;2023-06-14T14:47:34;27.40;58.50
14409;DHT22;7289;50.706;4.992;2023-06-14T14:50:03;27.50;58.90
14409;DHT22;7289;50.706;4.992;2023-06-14T14:52:31;27.50;58.60
14409;DHT22;7289;50.706;4.992;2023-06-14T14:55:01;27.70;60.70
14409;DHT22;7289;50.706;4.992;2023-06-14T14:57:30;27.50;57.10
14409;DHT22;7289;50.706;4.992;2023-06-14T14:59:59;27.60;59.60
14409;DHT22;7289;50.706;4.992;2023-06-14T15:02:28;27.70;56.30
14409;DHT22;7289;50.706;4.992;2023-06-14T15:04:57;27.80;58.10
14409;DHT22;7289;50.706;4.992;2023-06-14T15:07:27;27.80;55.50
14409;DHT22;7289;50.706;4.992;2023-06-14T15:09:56;27.70;57.30
14409;DHT22;7289;50.706;4.992;2023-06-14T15:12:25;27.80;56.80
14409;DHT22;7289;50.706;4.992;2023-06-14T15:14:56;27.80;56.30
14409;DHT22;7289;50.706;4.992;2023-06-14T15:17:25;27.60;56.60
14409;DHT22;7289;50.706;4.992;2023-06-14T15:19:53;27.60;56.40
14409;DHT22;7289;50.706;4.992;2023-06-14T15:22:22;27.60;56.30
14409;DHT22;7289;50.706;4.992;2023-06-14T15:24:50;27.50;57.10
14409;DHT22;7289;50.706;4.992;2023-06-14T15:27:19;27.60;57.90
14409;DHT22;7289;50.706;4.992;2023-06-14T15:29:48;27.50;58.00
14409;DHT22;7289;50.706;4.992;2023-06-14T15:32:17;27.60;57.80
14409;DHT22;7289;50.706;4.992;2023-06-14T15:34:46;27.70;59.70
14409;DHT22;7289;50.706;4.992;2023-06-14T15:37:15;27.70;58.70
14409;DHT22;7289;50.706;4.992;2023-06-14T15:39:43;27.70;55.90
14409;DHT22;7289;50.706;4.992;2023-06-14T15:42:11;27.70;57.10
14409;DHT22;7289;50.706;4.992;2023-06-14T15:44:40;27.60;56.90
14409;DHT22;7289;50.706;4.992;2023-06-14T15:47:10;27.80;58.70
14409;DHT22;7289;50.706;4.992;2023-06-14T15:49:38;27.80;58.80
14409;DHT22;7289;50.706;4.992;2023-06-14T15:52:07;27.70;56.50
14409;DHT22;7289;50.706;4.992;2023-06-14T15:54:35;27.50;58.20
14409;DHT22;7289;50.706;4.992;2023-06-14T15:57:04;27.70;58.70
14409;DHT22;7289;50.706;4.992;2023-06-14T15:59:34;27.60;58.00
14409;DHT22;7289;50.706;4.992;2023-06-14T16:02:02;27.70;60.20
14409;DHT22;7289;50.706;4.992;2023-06-14T16:04:32;27.70;58.20